KFRH/FRH METAR and TAF weather

Enter ICAO airport designator
Station Type Date Time Source
KFRH METAR 2022/08/12 15:15 UTC NOAA

KFRH 121515Z AUTO 05006KT 10SM CLR 22/15 A3020 RMK AO1


Station Type Date Time Source
KFRH Decoded METAR 2022/08/12 15:15 UTC NOAA

Station name not available
Aug 12, 2022 - 11:15 AM EDT / 2022.08.12 1515 UTC
Wind: from the NE (050 degrees) at 7 MPH (6 KT):0
Visibility: 10 mile(s):0
Sky conditions: clear
Temperature: 71 F (22 C)
Dew Point: 59 F (15 C)
Relative Humidity: 64%
Pressure (altimeter): 30.2 in. Hg (1022 hPa)
ob: KFRH 121515Z AUTO 05006KT 10SM CLR 22/15 A3020 RMK AO1
cycle: 15

Station Type Date Time Source
KFRH TAF UTC NOAA

Error!

Example: see airport list